Fairplay, Pennsylvania
Current Conditions -  °F | °C
As of 3:53 AM on Thursday 18 Dec 2014 (Local Time) from KRYT Reporting Station
Overcast Overcast  
Wind Chill: 24°   Ceiling: 3900
Heat Index: 32°   Visibility: 10mi
Dew Point: 16°   Wind: 10mph
Humidity: 52%   Direction: 320°NW
Pressure: 30.04"   Gusts: 20mph
Location:  39.8288°N, 77.2253°W
Report Text: KRYT 180853Z AUTO 32009G17KT 300V360 10SM OVC039 00/M09 A3004 RMK AO2 SLP185 T00001089 53008 $
Loading
Personal Weather Stations






























Interactive Weather Map New forecast layout! Learn more

10-Day Weather Forecast

Advertisements
Track Severe Weather on mobile